createdAt,value
2022-08-18T00:00:03.951Z,99369.44
2022-08-18T00:05:08.208Z,99375.56
2022-08-18T00:10:18.216Z,99375.88
2022-08-18T00:15:22.856Z,99363.16
2022-08-18T00:20:26.709Z,99385.66
2022-08-18T00:25:31.600Z,99379.69
2022-08-18T00:30:35.318Z,99381.72
2022-08-18T00:35:40.006Z,99373.69
2022-08-18T00:40:48.539Z,99369.34
2022-08-18T00:45:51.872Z,99384.53
2022-08-18T00:50:58.512Z,99389.88
2022-08-18T00:56:08.642Z,99383.94
2022-08-18T01:01:16.553Z,99388.81
2022-08-18T01:06:28.939Z,99385.19
2022-08-18T01:11:34.418Z,99408.91
2022-08-18T01:16:57.463Z,99391.06
2022-08-18T01:22:18.637Z,99400.34
2022-08-18T01:27:23.574Z,99395.97
2022-08-18T01:32:27.809Z,99396.28
2022-08-18T01:37:31.261Z,99394.84
2022-08-18T01:42:36.980Z,99402.75
2022-08-18T01:47:57.341Z,99403.66
2022-08-18T01:53:00.688Z,99414.41
2022-08-18T01:58:07.095Z,99421.50
2022-08-18T02:03:14.587Z,99417.22
2022-08-18T02:08:18.128Z,99406.13
2022-08-18T02:13:22.939Z,99414.69
2022-08-18T02:18:47.547Z,99413.66
2022-08-18T02:23:53.353Z,99418.94
2022-08-18T02:28:59.015Z,99415.88
2022-08-18T02:34:02.751Z,99433.09
2022-08-18T02:39:06.205Z,99433.09
2022-08-18T02:44:11.105Z,99431.91
2022-08-18T02:49:14.388Z,99429.38
2022-08-18T02:54:17.879Z,99436.88
2022-08-18T02:59:25.448Z,99432.03
2022-08-18T03:04:31.373Z,99430.63
2022-08-18T03:09:36.258Z,99435.91
2022-08-18T03:14:41.179Z,99445.66
2022-08-18T03:19:47.744Z,99438.03
2022-08-18T03:24:51.375Z,99442.53
2022-08-18T03:29:56.688Z,99445.78
2022-08-18T03:35:02.389Z,99446.03
2022-08-18T03:40:07.776Z,99448.38
2022-08-18T03:45:17.548Z,99443.53
2022-08-18T03:50:21.958Z,99431.94
2022-08-18T03:55:25.312Z,99448.03
2022-08-18T04:00:30.716Z,99430.72
2022-08-18T04:05:35.105Z,99442.66
2022-08-18T04:10:38.449Z,99444.13
2022-08-18T04:15:43.113Z,99451.34
2022-08-18T04:20:59.757Z,99450.72
2022-08-18T04:26:03.953Z,99450.47
2022-08-18T04:31:10.981Z,99454.25
2022-08-18T04:36:18.779Z,99456.22
2022-08-18T04:41:27.077Z,99456.06
2022-08-18T04:46:36.188Z,99450.38
2022-08-18T04:52:30.879Z,99451.94
2022-08-18T04:57:11.276Z,99455.44
2022-08-18T05:02:17.097Z,99463.75
2022-08-18T05:07:22.825Z,99456.25
2022-08-18T05:12:26.814Z,99468.88
2022-08-18T05:17:32.261Z,99467.50
2022-08-18T05:22:39.257Z,99451.34
2022-08-18T05:27:44.378Z,99470.84
2022-08-18T05:32:50.559Z,99462.91
2022-08-18T05:38:12.139Z,99473.91
2022-08-18T05:43:18.220Z,99482.84
2022-08-18T05:48:23.011Z,99480.13
2022-08-18T05:53:46.377Z,99482.00
2022-08-18T05:58:55.534Z,99488.44
2022-08-18T06:04:06.249Z,99479.72
2022-08-18T06:09:14.955Z,99484.13
2022-08-18T06:14:19.186Z,99479.75
2022-08-18T06:19:40.369Z,99488.03
2022-08-18T06:24:52.699Z,99493.72
2022-08-18T06:30:08.734Z,99490.00
2022-08-18T06:35:20.431Z,99499.19
2022-08-18T06:40:23.882Z,99499.81
2022-08-18T06:45:35.848Z,99490.91
2022-08-18T06:50:50.282Z,99497.84
2022-08-18T06:55:53.661Z,99501.63
2022-08-18T07:01:00.297Z,99490.00
2022-08-18T07:06:07.830Z,99495.19
2022-08-18T07:11:20.296Z,99499.84
2022-08-18T07:16:47.105Z,99492.59
2022-08-18T07:22:04.179Z,99496.47
2022-08-18T07:27:10.556Z,99498.91
2022-08-18T07:32:20.822Z,99505.06
2022-08-18T07:37:31.119Z,99506.03
2022-08-18T07:43:00.840Z,99507.59
2022-08-18T07:48:27.408Z,99511.41
2022-08-18T07:53:54.315Z,99495.47
2022-08-18T07:59:04.892Z,99508.28
2022-08-18T08:04:25.454Z,99508.22
2022-08-18T08:09:39.235Z,99501.50
2022-08-18T08:14:44.481Z,99499.88
2022-08-18T08:20:09.154Z,99506.81
2022-08-18T08:25:42.636Z,99505.13
2022-08-18T08:30:52.422Z,99499.50
2022-08-18T08:36:03.833Z,99502.94
2022-08-18T08:41:13.416Z,99493.63
2022-08-18T08:46:21.188Z,99491.75
2022-08-18T08:51:37.417Z,99493.28
2022-08-18T08:56:47.828Z,99487.66
2022-08-18T09:02:00.228Z,99489.25
2022-08-18T09:07:12.085Z,99491.50
2022-08-18T09:12:46.648Z,99484.91
2022-08-18T09:18:31.756Z,99478.69
2022-08-18T09:23:42.458Z,99470.31
2022-08-18T09:28:58.560Z,99488.00
2022-08-18T09:34:23.240Z,99490.53
2022-08-18T09:39:54.625Z,99484.34
2022-08-18T09:45:04.291Z,99485.50
2022-08-18T09:50:41.071Z,99479.13
2022-08-18T09:56:04.833Z,99478.16
2022-08-18T10:01:36.719Z,99484.16
2022-08-18T10:06:42.975Z,99475.06
2022-08-18T10:12:15.911Z,99482.44
2022-08-18T10:17:44.775Z,99482.84
2022-08-18T10:22:54.179Z,99475.63
2022-08-18T10:27:58.249Z,99493.47
2022-08-18T10:33:17.624Z,99465.06
2022-08-18T10:43:55.503Z,99469.56
2022-08-18T10:49:07.082Z,99464.84
2022-08-18T10:54:20.009Z,99463.03
2022-08-18T10:59:49.022Z,99466.44
2022-08-18T11:04:59.206Z,99460.03
2022-08-18T11:10:57.490Z,99464.00
2022-08-18T11:15:53.639Z,99458.91
2022-08-18T11:21:23.759Z,99461.94
2022-08-18T11:26:31.431Z,99457.59
2022-08-18T11:31:34.886Z,99460.34
2022-08-18T11:36:49.929Z,99451.06
2022-08-18T11:41:53.797Z,99448.44
2022-08-18T11:47:08.960Z,99453.56
2022-08-18T11:52:26.231Z,99452.63
2022-08-18T11:57:53.192Z,99437.81
2022-08-18T12:03:03.174Z,99432.03
2022-08-18T12:08:50.534Z,99431.00
2022-08-18T12:13:45.141Z,99438.94
2022-08-18T12:18:49.441Z,99436.41
2022-08-18T12:23:58.585Z,99429.50
2022-08-18T12:29:02.268Z,99456.31
2022-08-18T12:34:06.561Z,99441.31
2022-08-18T12:39:18.762Z,99430.63
2022-08-18T12:44:24.339Z,99430.03
2022-08-18T12:49:31.645Z,99432.59
2022-08-18T12:54:38.979Z,99429.84
2022-08-18T12:59:58.888Z,99424.72
2022-08-18T13:05:03.058Z,99426.50
2022-08-18T13:10:35.778Z,99430.72
2022-08-18T13:15:36.900Z,99429.50
2022-08-18T13:20:40.381Z,99422.59
2022-08-18T13:25:49.921Z,99428.06
2022-08-18T13:30:54.147Z,99422.19
2022-08-18T13:35:58.883Z,99424.16
2022-08-18T13:41:06.353Z,99414.66
2022-08-18T13:46:12.344Z,99423.81
2022-08-18T13:51:22.298Z,99418.31
2022-08-18T13:56:31.337Z,99413.47
2022-08-18T14:01:44.297Z,99427.25
2022-08-18T14:06:58.835Z,99415.97
2022-08-18T14:12:15.852Z,99417.88
2022-08-18T14:17:27.382Z,99414.91
2022-08-18T14:22:48.482Z,99426.25
2022-08-18T14:27:56.726Z,99425.91
2022-08-18T14:33:01.001Z,99442.84
2022-08-18T14:38:07.316Z,99432.00
2022-08-18T14:43:16.353Z,99441.47
2022-08-18T14:48:22.451Z,99445.84
2022-08-18T14:53:29.743Z,99439.53
2022-08-18T14:58:37.634Z,99440.41
2022-08-18T15:03:42.570Z,99439.78
2022-08-18T15:08:47.021Z,99438.69
2022-08-18T15:13:55.529Z,99445.13
2022-08-18T15:18:59.099Z,99437.34
2022-08-18T15:24:20.659Z,99431.75
2022-08-18T15:29:29.180Z,99436.25
2022-08-18T15:34:33.063Z,99446.22
2022-08-18T15:39:51.915Z,99448.22
2022-08-18T15:45:12.009Z,99449.06
2022-08-18T15:50:26.052Z,99451.72
2022-08-18T15:55:35.731Z,99449.00
2022-08-18T16:00:45.391Z,99457.22
2022-08-18T16:05:52.909Z,99451.16
2022-08-18T16:10:56.978Z,99456.47
2022-08-18T16:16:01.836Z,99453.72
2022-08-18T16:21:11.312Z,99456.34
2022-08-18T16:31:28.521Z,99456.63
2022-08-18T16:36:32.243Z,99468.50
2022-08-18T16:41:35.905Z,99465.00
2022-08-18T16:46:40.834Z,99468.28
2022-08-18T16:51:44.860Z,99480.28
2022-08-18T16:56:48.275Z,99481.66
2022-08-18T17:02:10.213Z,99476.38
2022-08-18T17:07:14.084Z,99459.28
2022-08-18T17:12:17.726Z,99477.81
2022-08-18T17:17:22.715Z,99487.75
2022-08-18T17:22:26.290Z,99498.50
2022-08-18T17:27:37.868Z,99498.88
2022-08-18T17:32:47.861Z,99506.84
2022-08-18T17:37:59.348Z,99507.53
2022-08-18T17:43:03.226Z,99502.28
2022-08-18T17:48:15.649Z,99505.31
2022-08-18T17:53:19.095Z,99500.03
2022-08-18T17:58:29.595Z,99504.03
2022-08-18T18:03:34.611Z,99509.38
2022-08-18T18:08:51.953Z,99508.09
2022-08-18T18:13:55.997Z,99517.91
2022-08-18T18:19:04.345Z,99516.47
2022-08-18T18:24:16.354Z,99515.00
2022-08-18T18:29:29.358Z,99521.50
2022-08-18T18:34:39.753Z,99518.59
2022-08-18T18:39:58.405Z,99504.03
2022-08-18T18:45:03.719Z,99516.44
2022-08-18T18:50:17.421Z,99527.41
2022-08-18T18:55:27.003Z,99529.59
2022-08-18T19:00:38.298Z,99530.28
2022-08-18T19:05:48.579Z,99537.88
2022-08-18T19:10:58.902Z,99550.28
2022-08-18T19:16:23.338Z,99557.81
2022-08-18T19:22:03.431Z,99552.84
2022-08-18T19:26:58.016Z,99552.91
2022-08-18T19:32:07.160Z,99555.91
2022-08-18T19:37:27.242Z,99565.56
2022-08-18T19:42:40.073Z,99557.78
2022-08-18T19:47:51.013Z,99577.44
2022-08-18T19:53:14.616Z,99585.53
2022-08-18T19:59:12.987Z,99586.94
2022-08-18T20:04:26.269Z,99601.59
2022-08-18T20:09:50.217Z,99590.97
2022-08-18T20:15:02.409Z,99593.19
2022-08-18T20:20:13.997Z,99606.88
2022-08-18T20:25:41.580Z,99607.94
2022-08-18T20:30:58.531Z,99621.25
2022-08-18T20:36:29.998Z,99624.34
2022-08-18T20:41:47.288Z,99611.69
2022-08-18T20:47:05.367Z,99625.09
2022-08-18T20:52:19.611Z,99643.75
2022-08-18T20:57:38.094Z,99645.03
2022-08-18T21:02:47.362Z,99647.09
2022-08-18T21:08:03.576Z,99643.47
2022-08-18T21:13:08.382Z,99649.59
2022-08-18T21:18:23.123Z,99659.41
2022-08-18T21:23:30.825Z,99655.84
2022-08-18T21:28:39.391Z,99659.41
2022-08-18T21:33:50.855Z,99658.28
2022-08-18T21:39:03.395Z,99670.84
2022-08-18T21:44:18.122Z,99675.22
2022-08-18T21:49:27.161Z,99669.28
2022-08-18T21:54:34.365Z,99671.25
2022-08-18T22:00:12.743Z,99681.78
2022-08-18T22:05:28.385Z,99692.72
2022-08-18T22:10:50.930Z,99693.97
2022-08-18T22:15:56.117Z,99696.13
2022-08-18T22:21:00.970Z,99695.59
2022-08-18T22:26:12.484Z,99699.44
2022-08-18T22:31:21.029Z,99686.06
2022-08-18T22:36:28.450Z,99697.75
2022-08-18T22:41:32.318Z,99676.97
2022-08-18T22:46:37.714Z,99699.56
2022-08-18T22:51:41.287Z,99692.16
2022-08-18T22:56:53.827Z,99689.09
2022-08-18T23:02:01.510Z,99699.06
2022-08-18T23:07:05.000Z,99702.63
2022-08-18T23:12:13.769Z,99684.56
2022-08-18T23:17:18.985Z,99701.31
2022-08-18T23:22:22.543Z,99707.56
2022-08-18T23:27:25.963Z,99718.50
2022-08-18T23:32:32.188Z,99711.31
2022-08-18T23:37:35.757Z,99726.41
2022-08-18T23:42:39.188Z,99728.16
2022-08-18T23:47:44.008Z,99717.59
2022-08-18T23:52:47.922Z,99730.44
2022-08-18T23:57:53.022Z,99744.44
